createdAt,value
2023-05-22T00:02:11.834Z,49.03
2023-05-22T00:04:40.112Z,48.89
2023-05-22T00:07:08.123Z,49.14
2023-05-22T00:09:36.072Z,49.22
2023-05-22T00:12:03.948Z,49.32
2023-05-22T00:14:31.720Z,49.33
2023-05-22T00:17:00.262Z,49.39
2023-05-22T00:19:30.415Z,49.63
2023-05-22T00:21:58.559Z,49.78
2023-05-22T00:24:26.333Z,49.54
2023-05-22T00:26:54.166Z,49.80
2023-05-22T00:29:21.925Z,49.75
2023-05-22T00:31:49.714Z,49.70
2023-05-22T00:34:17.641Z,49.74
2023-05-22T00:36:45.540Z,49.87
2023-05-22T00:39:13.372Z,49.89
2023-05-22T00:41:41.211Z,49.96
2023-05-22T00:44:09.097Z,49.92
2023-05-22T00:46:37.041Z,50.03
2023-05-22T00:49:05.608Z,50.27
2023-05-22T00:51:33.678Z,50.13
2023-05-22T00:54:01.750Z,50.18
2023-05-22T00:56:29.863Z,50.24
2023-05-22T00:58:58.490Z,50.28
2023-05-22T01:01:33.377Z,50.32
2023-05-22T01:04:01.903Z,50.32
2023-05-22T01:06:32.103Z,50.28
2023-05-22T01:08:59.878Z,50.38
2023-05-22T01:11:55.637Z,50.50
2023-05-22T01:15:04.229Z,50.25
2023-05-22T01:18:19.425Z,50.13
2023-05-22T01:20:58.191Z,50.33
2023-05-22T01:23:54.181Z,50.17
2023-05-22T01:26:56.095Z,50.36
2023-05-22T01:29:46.207Z,50.42
2023-05-22T01:32:21.055Z,50.47
2023-05-22T01:34:55.306Z,50.75
2023-05-22T01:37:24.738Z,50.92
2023-05-22T01:39:54.737Z,50.91
2023-05-22T01:42:22.987Z,50.82
2023-05-22T01:44:50.652Z,51.10
2023-05-22T01:47:18.474Z,50.98
2023-05-22T01:49:47.364Z,51.11
2023-05-22T01:52:48.290Z,51.11
2023-05-22T01:55:40.332Z,50.80
2023-05-22T01:58:22.544Z,50.82
2023-05-22T02:00:56.326Z,50.52
2023-05-22T02:03:33.718Z,50.55
2023-05-22T02:06:06.949Z,50.67
2023-05-22T02:08:40.489Z,50.89
2023-05-22T02:11:13.696Z,50.93
2023-05-22T02:13:42.834Z,50.95
2023-05-22T02:16:12.123Z,51.04
2023-05-22T02:18:41.909Z,50.89
2023-05-22T02:21:09.772Z,51.15
2023-05-22T02:23:37.972Z,51.15
2023-05-22T02:26:06.329Z,50.94
2023-05-22T02:28:34.035Z,51.13
2023-05-22T02:31:03.750Z,51.32
2023-05-22T02:33:31.583Z,51.54
2023-05-22T02:35:59.339Z,51.49
2023-05-22T02:38:27.023Z,51.38
2023-05-22T02:40:54.860Z,51.32
2023-05-22T02:43:22.581Z,51.43
2023-05-22T02:45:50.333Z,51.44
2023-05-22T02:48:18.491Z,51.39
2023-05-22T02:50:48.652Z,51.48
2023-05-22T02:53:17.187Z,51.42
2023-05-22T02:55:45.883Z,51.42
2023-05-22T02:58:14.512Z,51.42
2023-05-22T03:00:43.264Z,51.63
2023-05-22T03:03:11.672Z,51.55
2023-05-22T03:05:40.156Z,51.50
2023-05-22T03:08:08.692Z,51.28
2023-05-22T03:10:36.510Z,51.27
2023-05-22T03:13:04.653Z,51.52
2023-05-22T03:15:32.484Z,51.30
2023-05-22T03:18:08.819Z,51.38
2023-05-22T03:20:37.107Z,51.44
2023-05-22T03:23:06.733Z,51.53
2023-05-22T03:25:34.626Z,51.38
2023-05-22T03:28:03.259Z,51.47
2023-05-22T03:30:38.061Z,51.46
2023-05-22T03:33:20.965Z,51.33
2023-05-22T03:35:48.742Z,51.43
2023-05-22T03:38:16.448Z,51.20
2023-05-22T03:40:44.365Z,51.17
2023-05-22T03:43:12.244Z,51.31
2023-05-22T03:45:40.549Z,51.46
2023-05-22T03:48:10.503Z,51.47
2023-05-22T03:50:38.601Z,51.23
2023-05-22T03:53:07.156Z,51.30
2023-05-22T03:55:34.958Z,51.33
2023-05-22T03:58:04.029Z,51.40
2023-05-22T04:00:33.780Z,51.14
2023-05-22T04:03:01.795Z,51.31
2023-05-22T04:05:30.379Z,51.45
2023-05-22T04:07:58.346Z,51.52
2023-05-22T04:10:26.149Z,51.82
2023-05-22T04:12:53.876Z,51.90
2023-05-22T04:15:23.019Z,51.66
2023-05-22T04:17:52.591Z,51.96
2023-05-22T04:20:22.259Z,51.98
2023-05-22T04:22:51.592Z,51.78
2023-05-22T04:25:19.344Z,51.80
2023-05-22T04:27:48.106Z,52.01
2023-05-22T04:30:17.105Z,51.95
2023-05-22T04:32:45.169Z,51.85
2023-05-22T04:35:13.101Z,51.86
2023-05-22T04:37:45.568Z,52.12
2023-05-22T04:40:15.255Z,52.02
2023-05-22T04:42:44.005Z,52.23
2023-05-22T04:45:13.805Z,52.25
2023-05-22T04:47:43.364Z,52.19
2023-05-22T04:50:12.019Z,52.30
2023-05-22T04:52:39.871Z,52.23
2023-05-22T04:55:09.174Z,52.30
2023-05-22T04:57:40.879Z,52.18
2023-05-22T05:00:09.821Z,52.16
2023-05-22T05:02:39.060Z,52.20
2023-05-22T05:05:07.101Z,52.21
2023-05-22T05:07:39.993Z,52.00
2023-05-22T05:10:09.473Z,52.12
2023-05-22T05:12:38.095Z,52.21
2023-05-22T05:15:07.541Z,52.29
2023-05-22T05:17:37.676Z,52.33
2023-05-22T05:20:07.358Z,52.52
2023-05-22T05:22:35.856Z,52.42
2023-05-22T05:25:05.939Z,52.44
2023-05-22T05:27:33.910Z,52.42
2023-05-22T05:30:04.610Z,52.49
2023-05-22T05:32:44.601Z,52.58
2023-05-22T05:35:36.038Z,52.64
2023-05-22T05:38:11.021Z,52.59
2023-05-22T05:40:41.903Z,52.48
2023-05-22T05:43:11.013Z,52.72
2023-05-22T05:45:39.690Z,52.90
2023-05-22T05:48:08.077Z,52.85
2023-05-22T05:50:41.379Z,52.70
2023-05-22T05:53:10.434Z,52.84
2023-05-22T05:55:38.971Z,52.74
2023-05-22T05:58:06.736Z,52.86
2023-05-22T06:00:46.522Z,52.88
2023-05-22T06:03:14.800Z,53.05
2023-05-22T06:05:53.965Z,53.01
2023-05-22T06:08:28.353Z,52.88
2023-05-22T06:11:01.435Z,52.86
2023-05-22T06:13:36.512Z,52.88
2023-05-22T06:16:06.848Z,52.83
2023-05-22T06:18:35.621Z,53.03
2023-05-22T06:21:05.805Z,52.90
2023-05-22T06:23:34.539Z,53.13
2023-05-22T06:26:03.202Z,53.16
2023-05-22T06:28:31.305Z,53.21
2023-05-22T06:31:01.223Z,53.66
2023-05-22T06:33:29.882Z,53.54
2023-05-22T06:36:00.300Z,53.83
2023-05-22T06:38:28.489Z,53.52
2023-05-22T06:40:56.367Z,53.51
2023-05-22T06:43:26.917Z,53.45
2023-05-22T06:46:01.811Z,52.99
2023-05-22T06:48:43.262Z,53.05
2023-05-22T06:51:21.542Z,53.25
2023-05-22T06:53:53.184Z,53.08
2023-05-22T06:56:25.482Z,52.79
2023-05-22T06:59:00.257Z,52.75
2023-05-22T07:01:48.869Z,52.58
2023-05-22T07:04:21.606Z,52.18
2023-05-22T07:06:58.714Z,51.41
2023-05-22T07:09:26.561Z,51.31
2023-05-22T07:11:54.755Z,51.08
2023-05-22T07:14:22.523Z,50.81
2023-05-22T07:16:51.439Z,50.81
2023-05-22T07:19:27.412Z,50.68
2023-05-22T07:22:00.108Z,50.61
2023-05-22T07:24:28.526Z,50.33
2023-05-22T07:26:56.350Z,50.24
2023-05-22T07:29:24.109Z,49.90
2023-05-22T07:31:54.580Z,49.83
2023-05-22T07:34:31.781Z,49.77
2023-05-22T07:37:09.286Z,49.22
2023-05-22T07:39:37.098Z,49.11
2023-05-22T07:42:06.827Z,48.72
2023-05-22T07:44:39.435Z,48.73
2023-05-22T07:47:07.908Z,48.38
2023-05-22T07:49:36.316Z,47.87
2023-05-22T07:52:04.424Z,47.47
2023-05-22T07:54:32.299Z,47.30
2023-05-22T07:57:03.293Z,46.96
2023-05-22T07:59:37.739Z,46.83
2023-05-22T08:02:08.380Z,46.74
2023-05-22T08:04:36.712Z,46.66
2023-05-22T08:07:04.685Z,46.57
2023-05-22T08:09:34.703Z,46.33
2023-05-22T08:12:04.602Z,46.31
2023-05-22T08:14:37.425Z,45.98
2023-05-22T08:17:05.508Z,45.86
2023-05-22T08:19:33.475Z,45.91
2023-05-22T08:22:01.388Z,45.78
2023-05-22T08:24:30.520Z,45.63
2023-05-22T08:26:58.794Z,45.41
2023-05-22T08:29:27.328Z,45.31
2023-05-22T08:31:56.961Z,45.17
2023-05-22T08:34:26.540Z,44.75
2023-05-22T08:36:58.490Z,45.00
2023-05-22T08:39:26.443Z,44.87
2023-05-22T08:41:54.612Z,44.84
2023-05-22T08:44:22.597Z,44.96
2023-05-22T08:46:52.482Z,44.67
2023-05-22T08:49:23.967Z,44.84
2023-05-22T08:52:00.318Z,44.61
2023-05-22T08:54:30.032Z,44.37
2023-05-22T08:56:58.033Z,44.21
2023-05-22T08:59:26.075Z,44.42
2023-05-22T09:01:54.711Z,43.85
2023-05-22T09:04:24.123Z,43.66
2023-05-22T09:06:55.240Z,43.82
2023-05-22T09:09:23.102Z,44.39
2023-05-22T09:11:51.021Z,43.66
2023-05-22T09:14:20.372Z,43.14
2023-05-22T09:16:51.828Z,43.03
2023-05-22T09:19:19.716Z,43.01
2023-05-22T09:21:48.212Z,43.13
2023-05-22T09:24:16.152Z,43.00
2023-05-22T09:26:43.966Z,42.89
2023-05-22T09:29:11.788Z,42.24
2023-05-22T09:31:44.334Z,41.87
2023-05-22T09:34:17.716Z,41.95
2023-05-22T09:36:45.778Z,42.45
2023-05-22T09:39:13.738Z,41.70
2023-05-22T09:41:41.589Z,41.99
2023-05-22T09:44:15.009Z,41.65
2023-05-22T09:46:46.269Z,41.96
2023-05-22T09:49:17.088Z,41.90
2023-05-22T09:51:49.401Z,41.69
2023-05-22T09:54:20.374Z,41.77
2023-05-22T09:56:50.924Z,41.76
2023-05-22T09:59:23.769Z,41.65
2023-05-22T10:01:51.811Z,41.49
2023-05-22T10:04:23.206Z,41.68
2023-05-22T10:06:54.053Z,41.59
2023-05-22T10:09:30.791Z,41.75
2023-05-22T10:12:04.157Z,41.24
2023-05-22T10:14:34.641Z,41.32
2023-05-22T10:17:04.547Z,41.37
2023-05-22T10:19:34.576Z,41.58
2023-05-22T10:22:04.935Z,41.68
2023-05-22T10:24:33.562Z,41.82
2023-05-22T10:27:01.633Z,41.26
2023-05-22T10:29:38.342Z,40.94
2023-05-22T10:32:40.557Z,40.85
2023-05-22T10:35:22.956Z,40.30
2023-05-22T10:37:54.836Z,40.39
2023-05-22T10:40:29.361Z,40.01
2023-05-22T10:43:02.987Z,39.77
2023-05-22T10:45:31.892Z,39.47
2023-05-22T10:48:11.831Z,39.26
2023-05-22T10:50:49.972Z,39.18
2023-05-22T10:53:27.978Z,38.62
2023-05-22T10:55:57.497Z,38.16
2023-05-22T10:58:38.731Z,37.66
2023-05-22T11:01:20.119Z,37.74
2023-05-22T11:04:13.038Z,37.85
2023-05-22T11:07:05.402Z,38.90
2023-05-22T11:09:48.277Z,38.14
2023-05-22T11:12:27.374Z,37.64
2023-05-22T11:15:07.197Z,37.57
2023-05-22T11:17:51.246Z,37.85
2023-05-22T11:20:26.020Z,37.62
2023-05-22T11:23:05.731Z,37.50
2023-05-22T11:25:36.561Z,37.33
2023-05-22T11:28:05.837Z,37.42
2023-05-22T11:30:34.700Z,37.58
2023-05-22T11:33:03.044Z,37.33
2023-05-22T11:35:31.654Z,37.30
2023-05-22T11:38:01.141Z,37.33
2023-05-22T11:40:29.779Z,37.11
2023-05-22T11:42:57.753Z,36.72
2023-05-22T11:45:25.925Z,36.59
2023-05-22T11:47:53.822Z,36.77
2023-05-22T11:50:40.299Z,36.57
2023-05-22T11:53:10.464Z,36.21
2023-05-22T11:55:38.341Z,36.25
2023-05-22T11:58:07.697Z,36.36
2023-05-22T12:00:35.512Z,36.54
2023-05-22T12:03:04.184Z,36.76
2023-05-22T12:05:32.738Z,36.63
2023-05-22T12:08:00.935Z,35.93
2023-05-22T12:10:28.836Z,36.00
2023-05-22T12:12:56.858Z,36.02
2023-05-22T12:15:25.402Z,36.56
2023-05-22T12:17:56.539Z,35.62
2023-05-22T12:20:32.357Z,35.46
2023-05-22T12:23:00.201Z,35.21
2023-05-22T12:25:37.120Z,34.81
2023-05-22T12:28:11.809Z,34.77
2023-05-22T12:30:43.049Z,34.83
2023-05-22T12:33:15.472Z,34.93
2023-05-22T12:35:43.402Z,34.71
2023-05-22T12:38:11.815Z,34.47
2023-05-22T12:40:39.950Z,34.34
2023-05-22T12:43:07.953Z,34.59
2023-05-22T12:45:36.213Z,34.03
2023-05-22T12:48:04.077Z,33.64
2023-05-22T12:50:32.384Z,33.78
2023-05-22T12:53:02.123Z,33.51
2023-05-22T12:55:30.226Z,33.22
2023-05-22T12:57:58.120Z,33.62
2023-05-22T13:00:26.223Z,33.61
2023-05-22T13:02:55.609Z,33.38
2023-05-22T13:05:23.738Z,33.40
2023-05-22T13:07:51.510Z,33.28
2023-05-22T13:10:19.671Z,33.44
2023-05-22T13:12:48.577Z,33.46
2023-05-22T13:15:16.452Z,33.62
2023-05-22T13:17:44.433Z,33.65
2023-05-22T13:20:13.764Z,33.69
2023-05-22T13:22:41.856Z,33.93
2023-05-22T13:25:09.940Z,33.69
2023-05-22T13:27:39.271Z,33.93
2023-05-22T13:30:09.249Z,33.79
2023-05-22T13:32:38.014Z,33.72
2023-05-22T13:35:06.644Z,33.78
2023-05-22T13:37:34.463Z,34.09
2023-05-22T13:40:02.446Z,34.14
2023-05-22T13:42:30.458Z,34.14
2023-05-22T13:44:58.343Z,33.74
2023-05-22T13:47:26.334Z,33.38
2023-05-22T13:49:54.234Z,33.25
2023-05-22T13:52:22.696Z,32.86
2023-05-22T13:54:50.551Z,32.42
2023-05-22T13:57:18.351Z,32.60
2023-05-22T13:59:46.165Z,32.45
2023-05-22T14:02:14.003Z,32.18
2023-05-22T14:04:41.825Z,32.08
2023-05-22T14:07:09.789Z,31.50
2023-05-22T14:09:37.592Z,31.09
2023-05-22T14:12:06.244Z,31.19
2023-05-22T14:14:33.987Z,30.82
2023-05-22T14:17:02.880Z,30.74
2023-05-22T14:19:31.086Z,30.73
2023-05-22T14:21:58.971Z,30.76
2023-05-22T14:24:26.685Z,30.98
2023-05-22T14:26:58.000Z,30.36
2023-05-22T14:29:26.393Z,30.49
2023-05-22T14:32:01.886Z,30.70
2023-05-22T14:34:31.118Z,30.61
2023-05-22T14:36:58.934Z,30.59
2023-05-22T14:39:26.690Z,30.36
2023-05-22T14:41:54.963Z,30.30
2023-05-22T14:44:22.759Z,30.58
2023-05-22T14:46:53.355Z,30.49
2023-05-22T14:49:21.197Z,30.65
2023-05-22T14:51:49.076Z,30.52
2023-05-22T14:54:21.150Z,30.73
2023-05-22T14:56:49.292Z,30.54
2023-05-22T14:59:17.204Z,30.12
2023-05-22T15:01:49.966Z,30.09
2023-05-22T15:04:21.215Z,30.13
2023-05-22T15:06:49.077Z,29.87
2023-05-22T15:09:17.116Z,29.79
2023-05-22T15:11:48.916Z,30.34
2023-05-22T15:14:17.203Z,31.15
2023-05-22T15:16:45.216Z,30.79
2023-05-22T15:19:13.173Z,30.92
2023-05-22T15:21:42.164Z,32.77
2023-05-22T15:24:09.986Z,32.78
2023-05-22T15:26:37.739Z,33.30
2023-05-22T15:29:05.966Z,32.57
2023-05-22T15:31:36.981Z,32.72
2023-05-22T15:34:04.852Z,33.16
2023-05-22T15:36:36.472Z,33.35
2023-05-22T15:39:04.381Z,33.17
2023-05-22T15:41:32.108Z,33.18
2023-05-22T15:44:00.209Z,33.16
2023-05-22T15:46:28.050Z,33.32
2023-05-22T15:48:56.017Z,33.52
2023-05-22T15:51:23.842Z,33.59
2023-05-22T15:53:51.573Z,33.59
2023-05-22T15:56:21.332Z,33.39
2023-05-22T15:58:49.164Z,33.33
2023-05-22T16:01:17.052Z,33.60
2023-05-22T16:03:45.062Z,33.78
2023-05-22T16:06:12.946Z,34.28
2023-05-22T16:08:41.971Z,34.71
2023-05-22T16:11:09.798Z,34.92
2023-05-22T16:13:37.672Z,34.84
2023-05-22T16:16:06.026Z,35.11
2023-05-22T16:18:33.978Z,34.82
2023-05-22T16:21:01.723Z,34.93
2023-05-22T16:23:29.487Z,35.25
2023-05-22T16:25:57.517Z,35.59
2023-05-22T16:28:25.256Z,35.70
2023-05-22T16:30:53.039Z,35.98
2023-05-22T16:33:20.826Z,36.12
2023-05-22T16:35:48.690Z,36.58
2023-05-22T16:38:16.602Z,36.80
2023-05-22T16:40:44.378Z,36.98
2023-05-22T16:43:15.315Z,37.05
2023-05-22T16:45:47.447Z,37.41
2023-05-22T16:48:15.758Z,37.55
2023-05-22T16:50:44.140Z,37.55
2023-05-22T16:53:12.688Z,37.84
2023-05-22T16:55:40.936Z,37.58
2023-05-22T16:58:11.618Z,37.72
2023-05-22T17:00:40.534Z,37.71
2023-05-22T17:03:09.337Z,37.51
2023-05-22T17:05:38.416Z,37.41
2023-05-22T17:08:06.611Z,37.54
2023-05-22T17:10:34.427Z,37.13
2023-05-22T17:13:02.224Z,37.38
2023-05-22T17:15:29.979Z,37.33
2023-05-22T17:17:58.325Z,37.03
2023-05-22T17:20:26.320Z,37.30
2023-05-22T17:22:54.118Z,37.15
2023-05-22T17:25:22.071Z,37.06
2023-05-22T17:27:49.953Z,36.42
2023-05-22T17:30:17.958Z,36.48
2023-05-22T17:32:46.643Z,36.59
2023-05-22T17:35:14.467Z,36.50
2023-05-22T17:37:42.193Z,36.63
2023-05-22T17:40:11.718Z,37.22
2023-05-22T17:42:39.582Z,37.20
2023-05-22T17:45:09.621Z,37.31
2023-05-22T17:47:37.412Z,37.24
2023-05-22T17:50:05.688Z,37.92
2023-05-22T17:52:34.034Z,37.96
2023-05-22T17:55:07.993Z,38.26
2023-05-22T17:57:35.838Z,38.62
2023-05-22T18:00:12.582Z,38.69
2023-05-22T18:02:42.804Z,38.99
2023-05-22T18:05:10.937Z,39.15
2023-05-22T18:07:38.886Z,39.72
2023-05-22T18:10:07.377Z,39.78
2023-05-22T18:12:38.020Z,39.75
2023-05-22T18:15:09.546Z,40.00
2023-05-22T18:17:37.518Z,39.73
2023-05-22T18:20:09.555Z,40.10
2023-05-22T18:22:43.524Z,40.37
2023-05-22T18:25:12.303Z,40.37
2023-05-22T18:27:40.430Z,40.87
2023-05-22T18:30:09.313Z,40.91
2023-05-22T18:32:40.392Z,41.23
2023-05-22T18:35:10.055Z,41.29
2023-05-22T18:37:37.940Z,41.35
2023-05-22T18:40:09.232Z,41.47
2023-05-22T18:42:38.484Z,41.40
2023-05-22T18:45:07.643Z,41.57
2023-05-22T18:47:39.688Z,41.96
2023-05-22T18:50:08.516Z,41.88
2023-05-22T18:52:37.859Z,41.73
2023-05-22T18:55:08.074Z,41.78
2023-05-22T18:57:35.846Z,41.60
2023-05-22T19:00:04.151Z,41.42
2023-05-22T19:02:32.025Z,41.50
2023-05-22T19:05:00.058Z,41.12
2023-05-22T19:07:27.998Z,41.05
2023-05-22T19:09:55.753Z,41.00
2023-05-22T19:12:24.699Z,40.89
2023-05-22T19:14:56.002Z,40.70
2023-05-22T19:17:23.797Z,40.68
2023-05-22T19:19:51.547Z,40.59
2023-05-22T19:22:19.437Z,40.57
2023-05-22T19:24:47.261Z,40.63
2023-05-22T19:27:15.051Z,40.62
2023-05-22T19:29:42.868Z,40.72
2023-05-22T19:32:10.719Z,40.82
2023-05-22T19:34:38.702Z,41.00
2023-05-22T19:37:08.241Z,41.07
2023-05-22T19:39:36.078Z,41.38
2023-05-22T19:42:04.998Z,41.44
2023-05-22T19:44:32.744Z,41.50
2023-05-22T19:47:00.900Z,41.49
2023-05-22T19:49:31.520Z,41.45
2023-05-22T19:51:59.538Z,41.52
2023-05-22T19:54:27.336Z,41.68
2023-05-22T19:56:55.130Z,41.87
2023-05-22T19:59:23.912Z,41.77
2023-05-22T20:01:53.866Z,41.69
2023-05-22T20:04:21.926Z,41.82
2023-05-22T20:06:50.831Z,41.99
2023-05-22T20:09:20.391Z,42.30
2023-05-22T20:11:48.216Z,42.19
2023-05-22T20:14:16.073Z,42.49
2023-05-22T20:16:44.099Z,42.65
2023-05-22T20:19:14.302Z,42.83
2023-05-22T20:21:44.264Z,43.02
2023-05-22T20:24:21.075Z,42.90
2023-05-22T20:26:50.761Z,43.24
2023-05-22T20:29:19.224Z,43.13
2023-05-22T20:31:47.122Z,43.25
2023-05-22T20:34:15.572Z,43.30
2023-05-22T20:36:44.972Z,42.98
2023-05-22T20:39:13.479Z,43.00
2023-05-22T20:41:41.264Z,43.23
2023-05-22T20:44:09.538Z,43.38
2023-05-22T20:46:37.594Z,43.34
2023-05-22T20:49:06.202Z,43.48
2023-05-22T20:51:34.535Z,43.32
2023-05-22T20:54:02.375Z,43.63
2023-05-22T20:56:30.258Z,43.53
2023-05-22T20:58:58.119Z,43.90
2023-05-22T21:01:26.062Z,44.00
2023-05-22T21:03:56.566Z,44.15
2023-05-22T21:06:24.647Z,44.23
2023-05-22T21:08:54.182Z,44.21
2023-05-22T21:11:22.174Z,44.52
2023-05-22T21:13:50.028Z,44.37
2023-05-22T21:16:17.795Z,44.76
2023-05-22T21:18:45.740Z,44.75
2023-05-22T21:21:17.706Z,44.87
2023-05-22T21:23:45.655Z,45.07
2023-05-22T21:26:13.600Z,45.28
2023-05-22T21:28:43.529Z,45.34
2023-05-22T21:31:11.615Z,45.10
2023-05-22T21:33:39.380Z,45.57
2023-05-22T21:36:07.339Z,45.68
2023-05-22T21:38:35.059Z,45.94
2023-05-22T21:41:03.221Z,46.04
2023-05-22T21:43:31.019Z,45.91
2023-05-22T21:45:58.818Z,46.39
2023-05-22T21:48:27.060Z,46.47
2023-05-22T21:50:54.894Z,46.18
2023-05-22T21:53:22.788Z,46.47
2023-05-22T21:55:50.585Z,46.55
2023-05-22T21:58:18.418Z,46.86
2023-05-22T22:00:46.315Z,47.14
2023-05-22T22:03:14.263Z,46.94
2023-05-22T22:05:42.121Z,47.03
2023-05-22T22:08:09.922Z,47.09
2023-05-22T22:10:37.880Z,47.26
2023-05-22T22:13:05.905Z,47.27
2023-05-22T22:15:33.882Z,47.23
2023-05-22T22:18:02.294Z,47.68
2023-05-22T22:20:44.192Z,47.63
2023-05-22T22:23:13.026Z,47.57
2023-05-22T22:25:40.832Z,47.53
2023-05-22T22:28:08.577Z,47.49
2023-05-22T22:30:36.340Z,47.79
2023-05-22T22:33:04.307Z,47.93
2023-05-22T22:35:32.238Z,47.97
2023-05-22T22:37:59.995Z,47.81
2023-05-22T22:40:27.959Z,48.12
2023-05-22T22:42:55.860Z,48.17
2023-05-22T22:45:23.756Z,48.40
2023-05-22T22:47:52.677Z,48.48
2023-05-22T22:50:21.366Z,48.25
2023-05-22T22:52:49.370Z,48.62
2023-05-22T22:55:17.516Z,48.84
2023-05-22T22:57:50.026Z,48.76
2023-05-22T23:00:19.246Z,48.92
2023-05-22T23:02:47.176Z,48.82
2023-05-22T23:05:19.752Z,48.91
2023-05-22T23:07:48.249Z,48.90
2023-05-22T23:10:16.347Z,49.22
2023-05-22T23:12:44.182Z,49.07
2023-05-22T23:15:13.466Z,49.13
2023-05-22T23:17:41.995Z,49.25
2023-05-22T23:20:10.697Z,49.34
2023-05-22T23:22:38.475Z,49.70
2023-05-22T23:25:06.879Z,49.74
2023-05-22T23:27:34.747Z,49.62
2023-05-22T23:30:06.429Z,49.85
2023-05-22T23:32:34.218Z,49.63
2023-05-22T23:35:02.126Z,49.75
2023-05-22T23:37:30.507Z,50.07
2023-05-22T23:39:58.337Z,50.23
2023-05-22T23:42:26.152Z,49.68
2023-05-22T23:44:53.873Z,49.85
2023-05-22T23:47:21.836Z,49.65
2023-05-22T23:49:49.749Z,50.06
2023-05-22T23:52:17.564Z,49.85
2023-05-22T23:54:45.341Z,49.89
2023-05-22T23:57:13.150Z,49.99
2023-05-22T23:59:40.836Z,50.20
